Aérodrome :
LOGIN :

S'inscrire | Disclaimer

   EN    FR    IT 

 










Légende :    VFR   VFR Marginal   IFR   IFR Intensif   IFR Très Intensif
Visi : 
Plafond : 
>= 8 km
>= 3000ft
5 à 8 km
1000 à 3000 ft
1500m à 5 km
500 à 1000 ft
800 à 1500m
200 à 500 ft
< 800m
< 200 ft
Symboles :   Orages  Brouillard  Fortes neiges  Fortes précipitations  Vent > 20 kt
SIGMETs :   Divers  Orages  Givrage  Turbulence  Onde Orograph.  Cendres Volcan.







- Altitude de l'aérodrome : 75 ft
- Code IATA : YEO


EGDY - RNAS Yeovilton

DERNIER METAR :
  • 180350Z AUTO 23006KT 9999 BKN030/// 16/14 Q1020

METARs EXPIRÉS :
  • 180250Z AUTO 21007KT 9999 SCT016/// BKN034/// 16/14 Q1021 RERA
  • 180150Z AUTO 22006KT 9999 SCT017/// SCT024/// BKN036/// 16/14 Q1021 RERA

Prévision TAF périmée.
Pas de NOTAMs connus pour ce terrain.
1 SIGMET publié pour la FIR London (EGTT) :
 
Onde orographique forte
EGTT SIGMET 01 VALID 180330/180730 EGRR
EGTT LONDON FIR SEV MTW FCST WI N5500 W00530 - N5500 E00000 - N5300 W00130 - N5300 W00530 - N5500 W00530 FL040/250 STNR NC=



MET'MAP, la Météo Aéronautique d'un coup d'oeil ! - Copyright ORBIFLY Décembre 2007 - Disclaimer

ORBIFLY MET'MAP TEAM :

Programmation & Développement : Alexandra Zaïnal
Conception & Développement : Baudouin d'Aumeries
Co-Programmation & Développement : Marc-Olivier Méhu
Soutien technique & logistique : Manuel Goepfert

Contact : metmap@orbifly.com




SOURCES & CREDITS :

   NOAA